sensor_id;sensor_type;location;lat;lon;timestamp;pressure;altitude;pressure_sealevel;temperature;humidity
1472;BME280;963;42.644;23.336;2023-04-26T00:01:56;93270.91;;;11.61;82.21
1472;BME280;963;42.644;23.336;2023-04-26T00:04:23;93266.03;;;11.59;82.41
1472;BME280;963;42.644;23.336;2023-04-26T00:06:49;93272.59;;;11.09;85.88
1472;BME280;963;42.644;23.336;2023-04-26T00:09:14;93249.25;;;11.21;84.78
1472;BME280;963;42.644;23.336;2023-04-26T00:11:40;93252.41;;;10.49;90.09
1472;BME280;963;42.644;23.336;2023-04-26T00:14:05;93249.38;;;10.68;89.31
1472;BME280;963;42.644;23.336;2023-04-26T00:16:31;93264.00;;;10.76;88.76
1472;BME280;963;42.644;23.336;2023-04-26T00:18:56;93242.59;;;10.81;87.83
1472;BME280;963;42.644;23.336;2023-04-26T00:21:22;93242.66;;;10.24;90.04
1472;BME280;963;42.644;23.336;2023-04-26T00:23:47;93240.41;;;10.41;91.71
1472;BME280;963;42.644;23.336;2023-04-26T00:26:12;93258.75;;;10.76;88.26
1472;BME280;963;42.644;23.336;2023-04-26T00:28:38;93240.75;;;10.78;86.78
1472;BME280;963;42.644;23.336;2023-04-26T00:31:03;93240.75;;;10.64;87.67
1472;BME280;963;42.644;23.336;2023-04-26T00:33:29;93247.13;;;10.74;86.86
1472;BME280;963;42.644;23.336;2023-04-26T00:35:54;93238.09;;;10.71;87.01
1472;BME280;963;42.644;23.336;2023-04-26T00:38:20;93211.03;;;10.78;85.83
1472;BME280;963;42.644;23.336;2023-04-26T00:40:45;93234.34;;;10.79;85.65
1472;BME280;963;42.644;23.336;2023-04-26T00:43:11;93221.94;;;10.69;86.02
1472;BME280;963;42.644;23.336;2023-04-26T00:45:36;93215.63;;;10.45;87.12
1472;BME280;963;42.644;23.336;2023-04-26T00:48:02;93220.13;;;10.27;87.94
1472;BME280;963;42.644;23.336;2023-04-26T00:50:28;93229.88;;;10.48;86.14
1472;BME280;963;42.644;23.336;2023-04-26T00:52:56;93227.59;;;9.93;89.19
1472;BME280;963;42.644;23.336;2023-04-26T00:55:21;93220.09;;;10.02;87.99
1472;BME280;963;42.644;23.336;2023-04-26T00:57:47;93228.75;;;10.27;86.96
1472;BME280;963;42.644;23.336;2023-04-26T01:00:13;93243.41;;;10.43;84.90
1472;BME280;963;42.644;23.336;2023-04-26T01:02:40;93226.16;;;10.42;83.62
1472;BME280;963;42.644;23.336;2023-04-26T01:05:06;93239.66;;;10.44;83.13
1472;BME280;963;42.644;23.336;2023-04-26T01:07:32;93222.38;;;10.36;82.61
1472;BME280;963;42.644;23.336;2023-04-26T01:09:58;93233.25;;;10.38;81.73
1472;BME280;963;42.644;23.336;2023-04-26T01:12:25;93235.16;;;10.30;80.77
1472;BME280;963;42.644;23.336;2023-04-26T01:14:50;93235.16;;;10.26;78.92
1472;BME280;963;42.644;23.336;2023-04-26T01:17:16;93248.63;;;10.14;77.64
1472;BME280;963;42.644;23.336;2023-04-26T01:19:50;93232.09;;;10.03;78.75
1472;BME280;963;42.644;23.336;2023-04-26T01:22:16;93222.38;;;10.11;77.88
1472;BME280;963;42.644;23.336;2023-04-26T01:24:43;93222.75;;;10.13;77.57
1472;BME280;963;42.644;23.336;2023-04-26T01:27:09;93206.59;;;10.07;77.45
1472;BME280;963;42.644;23.336;2023-04-26T01:29:34;93217.88;;;10.08;77.41
1472;BME280;963;42.644;23.336;2023-04-26T01:32:00;93213.72;;;10.03;76.66
1472;BME280;963;42.644;23.336;2023-04-26T01:34:26;93221.59;;;9.71;76.88
1472;BME280;963;42.644;23.336;2023-04-26T01:36:51;93226.47;;;9.80;77.47
1472;BME280;963;42.644;23.336;2023-04-26T01:39:16;93237.34;;;9.82;76.97
1472;BME280;963;42.644;23.336;2023-04-26T01:41:42;93252.72;;;9.80;77.52
1472;BME280;963;42.644;23.336;2023-04-26T01:44:07;93244.84;;;9.80;77.88
1472;BME280;963;42.644;23.336;2023-04-26T01:46:33;93259.47;;;9.77;78.44
1472;BME280;963;42.644;23.336;2023-04-26T01:48:58;93242.59;;;9.82;79.46
1472;BME280;963;42.644;23.336;2023-04-26T01:51:23;93227.59;;;9.93;79.03
1472;BME280;963;42.644;23.336;2023-04-26T01:53:49;93238.09;;;10.00;79.12
1472;BME280;963;42.644;23.336;2023-04-26T01:56:15;93217.88;;;10.04;79.66
1472;BME280;963;42.644;23.336;2023-04-26T01:58:40;93221.25;;;10.15;79.48
1472;BME280;963;42.644;23.336;2023-04-26T02:01:07;93223.88;;;10.22;79.50
1472;BME280;963;42.644;23.336;2023-04-26T02:03:33;93217.84;;;10.18;79.00
1472;BME280;963;42.644;23.336;2023-04-26T02:05:59;93211.09;;;10.14;79.71
1472;BME280;963;42.644;23.336;2023-04-26T02:08:25;93217.88;;;10.11;80.03
1472;BME280;963;42.644;23.336;2023-04-26T02:10:50;93210.34;;;10.06;79.69
1472;BME280;963;42.644;23.336;2023-04-26T02:13:15;93214.13;;;10.05;79.52
1472;BME280;963;42.644;23.336;2023-04-26T02:15:45;93214.47;;;9.89;78.29
1472;BME280;963;42.644;23.336;2023-04-26T02:18:11;93195.31;;;9.71;78.91
1472;BME280;963;42.644;23.336;2023-04-26T02:20:41;93202.09;;;9.76;79.48
1472;BME280;963;42.644;23.336;2023-04-26T02:23:08;93212.22;;;9.81;80.00
1472;BME280;963;42.644;23.336;2023-04-26T02:25:33;93199.06;;;9.77;79.59
1472;BME280;963;42.644;23.336;2023-04-26T02:27:59;93220.47;;;9.90;78.86
1472;BME280;963;42.644;23.336;2023-04-26T02:30:24;93196.81;;;9.83;78.92
1472;BME280;963;42.644;23.336;2023-04-26T02:32:52;93208.84;;;9.87;79.69
1472;BME280;963;42.644;23.336;2023-04-26T02:35:18;93212.97;;;9.70;80.35
1472;BME280;963;42.644;23.336;2023-04-26T02:37:43;93202.09;;;9.83;78.69
1472;BME280;963;42.644;23.336;2023-04-26T02:40:13;93208.84;;;9.94;79.10
1472;BME280;963;42.644;23.336;2023-04-26T02:42:38;93203.19;;;9.99;80.05
1472;BME280;963;42.644;23.336;2023-04-26T02:45:04;93182.56;;;9.94;79.45
1472;BME280;963;42.644;23.336;2023-04-26T02:47:31;93202.84;;;10.08;79.61
1472;BME280;963;42.644;23.336;2023-04-26T02:49:56;93217.13;;;10.14;80.13
1472;BME280;963;42.644;23.336;2023-04-26T02:52:22;93194.97;;;10.15;80.80
1472;BME280;963;42.644;23.336;2023-04-26T02:54:47;93204.72;;;10.18;81.06
1472;BME280;963;42.644;23.336;2023-04-26T02:57:13;93184.09;;;10.20;81.10
1472;BME280;963;42.644;23.336;2023-04-26T02:59:38;93176.19;;;10.13;80.68
1472;BME280;963;42.644;23.336;2023-04-26T03:02:03;93202.84;;;10.12;79.50
1472;BME280;963;42.644;23.336;2023-04-26T03:04:32;93200.56;;;10.03;79.85
1472;BME280;963;42.644;23.336;2023-04-26T03:06:58;93197.97;;;10.10;79.19
1472;BME280;963;42.644;23.336;2023-04-26T03:09:23;93192.72;;;10.21;79.11
1472;BME280;963;42.644;23.336;2023-04-26T03:11:49;93194.22;;;10.29;78.99
1472;BME280;963;42.644;23.336;2023-04-26T03:14:14;93199.84;;;10.34;79.42
1472;BME280;963;42.644;23.336;2023-04-26T03:16:41;93189.34;;;10.42;79.46
1472;BME280;963;42.644;23.336;2023-04-26T03:19:07;93174.31;;;10.35;79.76
1472;BME280;963;42.644;23.336;2023-04-26T03:21:32;93172.81;;;10.30;80.23
1472;BME280;963;42.644;23.336;2023-04-26T03:23:58;93198.72;;;10.43;80.63
1472;BME280;963;42.644;23.336;2023-04-26T03:26:23;93196.84;;;10.15;82.44
1472;BME280;963;42.644;23.336;2023-04-26T03:28:49;93181.81;;;9.94;82.50
1472;BME280;963;42.644;23.336;2023-04-26T03:31:14;93209.63;;;10.30;81.17
1472;BME280;963;42.644;23.336;2023-04-26T03:33:40;93200.59;;;10.39;80.98
1472;BME280;963;42.644;23.336;2023-04-26T03:36:06;93211.13;;;10.46;80.99
1472;BME280;963;42.644;23.336;2023-04-26T03:38:31;93208.09;;;10.51;81.35
1472;BME280;963;42.644;23.336;2023-04-26T03:40:57;93190.06;;;10.49;81.08
1472;BME280;963;42.644;23.336;2023-04-26T03:43:22;93192.34;;;10.47;81.23
1472;BME280;963;42.644;23.336;2023-04-26T03:45:48;93194.56;;;10.52;81.68
1472;BME280;963;42.644;23.336;2023-04-26T03:48:14;93201.31;;;10.57;81.47
1472;BME280;963;42.644;23.336;2023-04-26T03:50:41;93212.59;;;10.54;81.13
1472;BME280;963;42.644;23.336;2023-04-26T03:53:06;93207.34;;;10.57;81.26
1472;BME280;963;42.644;23.336;2023-04-26T03:55:32;93198.31;;;10.58;81.42
1472;BME280;963;42.644;23.336;2023-04-26T03:57:57;93193.81;;;10.59;81.61
1472;BME280;963;42.644;23.336;2023-04-26T04:00:23;93187.81;;;10.55;81.58
1472;BME280;963;42.644;23.336;2023-04-26T04:02:48;93215.97;;;10.61;80.83
1472;BME280;963;42.644;23.336;2023-04-26T04:05:14;93225.34;;;10.66;80.95
1472;BME280;963;42.644;23.336;2023-04-26T04:07:39;93217.06;;;10.71;80.56
1472;BME280;963;42.644;23.336;2023-04-26T04:10:05;93215.94;;;10.72;80.86
1472;BME280;963;42.644;23.336;2023-04-26T04:12:31;93212.16;;;10.73;80.76
1472;BME280;963;42.644;23.336;2023-04-26T04:14:56;93241.47;;;10.82;80.85
1472;BME280;963;42.644;23.336;2023-04-26T04:17:22;93224.56;;;10.83;80.83
1472;BME280;963;42.644;23.336;2023-04-26T04:19:47;93232.84;;;10.82;80.98
1472;BME280;963;42.644;23.336;2023-04-26T04:22:13;93225.31;;;10.80;81.60
1472;BME280;963;42.644;23.336;2023-04-26T04:24:38;93223.81;;;10.86;81.36
1472;BME280;963;42.644;23.336;2023-04-26T04:27:05;93218.59;;;10.65;81.12
1472;BME280;963;42.644;23.336;2023-04-26T04:29:30;93228.31;;;10.82;81.42
1472;BME280;963;42.644;23.336;2023-04-26T04:31:57;93249.34;;;10.93;80.67
1472;BME280;963;42.644;23.336;2023-04-26T04:34:22;93250.47;;;10.95;80.92
1472;BME280;963;42.644;23.336;2023-04-26T04:36:48;93234.28;;;11.01;81.08
1472;BME280;963;42.644;23.336;2023-04-26T04:39:14;93228.28;;;10.96;80.98
1472;BME280;963;42.644;23.336;2023-04-26T04:41:41;93242.50;;;11.13;79.74
1472;BME280;963;42.644;23.336;2023-04-26T04:44:16;93234.22;;;11.15;79.35
1472;BME280;963;42.644;23.336;2023-04-26T04:46:42;93235.34;;;11.21;80.41
1472;BME280;963;42.644;23.336;2023-04-26T04:49:08;93252.25;;;11.23;80.13
1472;BME280;963;42.644;23.336;2023-04-26T04:51:34;93250.00;;;11.25;80.40
1472;BME280;963;42.644;23.336;2023-04-26T04:54:09;93238.72;;;11.25;79.98
1472;BME280;963;42.644;23.336;2023-04-26T04:56:35;93259.00;;;11.32;79.40
1472;BME280;963;42.644;23.336;2023-04-26T04:59:00;93244.69;;;11.33;79.35
1472;BME280;963;42.644;23.336;2023-04-26T05:01:25;93255.94;;;11.40;78.81
1472;BME280;963;42.644;23.336;2023-04-26T05:03:51;93258.94;;;11.42;78.57
1472;BME280;963;42.644;23.336;2023-04-26T05:06:16;93228.88;;;11.36;78.68
1472;BME280;963;42.644;23.336;2023-04-26T05:08:41;93237.16;;;11.38;78.23
1472;BME280;963;42.644;23.336;2023-04-26T05:11:07;93233.00;;;11.41;77.77
1472;BME280;963;42.644;23.336;2023-04-26T05:13:32;93246.88;;;11.48;77.81
1472;BME280;963;42.644;23.336;2023-04-26T05:15:58;93254.44;;;11.39;78.22
1472;BME280;963;42.644;23.336;2023-04-26T05:18:23;93257.41;;;11.55;77.97
1472;BME280;963;42.644;23.336;2023-04-26T05:20:48;93251.38;;;11.55;77.59
1472;BME280;963;42.644;23.336;2023-04-26T05:23:14;93262.66;;;11.55;76.77
1472;BME280;963;42.644;23.336;2023-04-26T05:25:40;93251.75;;;11.53;76.57
1472;BME280;963;42.644;23.336;2023-04-26T05:28:05;93242.38;;;11.52;76.50
1472;BME280;963;42.644;23.336;2023-04-26T05:30:36;93258.13;;;11.59;76.82
1472;BME280;963;42.644;23.336;2023-04-26T05:33:02;93257.00;;;11.61;76.71
1472;BME280;963;42.644;23.336;2023-04-26T05:35:27;93257.75;;;11.57;76.40
1472;BME280;963;42.644;23.336;2023-04-26T05:37:53;93272.44;;;11.55;77.09
1472;BME280;963;42.644;23.336;2023-04-26T05:40:18;93265.66;;;11.61;76.66
1472;BME280;963;42.644;23.336;2023-04-26T05:42:44;93265.25;;;11.63;76.41
1472;BME280;963;42.644;23.336;2023-04-26T05:45:09;93252.91;;;11.52;76.67
1472;BME280;963;42.644;23.336;2023-04-26T05:47:35;93273.84;;;11.81;76.69
1472;BME280;963;42.644;23.336;2023-04-26T05:50:00;93278.28;;;11.95;76.93
1472;BME280;963;42.644;23.336;2023-04-26T05:52:26;93264.69;;;12.03;75.20
1472;BME280;963;42.644;23.336;2023-04-26T05:54:52;93280.50;;;12.03;74.07
1472;BME280;963;42.644;23.336;2023-04-26T05:57:18;93269.22;;;11.99;73.30
1472;BME280;963;42.644;23.336;2023-04-26T05:59:44;93287.19;;;12.15;73.31
1472;BME280;963;42.644;23.336;2023-04-26T06:02:09;93275.06;;;12.25;73.75
1472;BME280;963;42.644;23.336;2023-04-26T06:04:35;93255.50;;;12.22;73.65
1472;BME280;963;42.644;23.336;2023-04-26T06:07:01;93275.38;;;12.37;73.92
1472;BME280;963;42.644;23.336;2023-04-26T06:09:26;93268.53;;;12.43;73.32
1472;BME280;963;42.644;23.336;2023-04-26T06:11:52;93266.53;;;12.58;73.30
1472;BME280;963;42.644;23.336;2023-04-26T06:14:17;93242.44;;;12.56;72.22
1472;BME280;963;42.644;23.336;2023-04-26T06:16:43;93265.63;;;12.75;71.93
1472;BME280;963;42.644;23.336;2023-04-26T06:19:08;93269.34;;;12.81;70.69
1472;BME280;963;42.644;23.336;2023-04-26T06:21:34;93265.09;;;12.91;69.88
1472;BME280;963;42.644;23.336;2023-04-26T06:23:59;93280.91;;;12.95;70.09
1472;BME280;963;42.644;23.336;2023-04-26T06:26:25;93255.69;;;12.90;69.64
1472;BME280;963;42.644;23.336;2023-04-26T06:28:50;93265.03;;;12.98;68.40
1472;BME280;963;42.644;23.336;2023-04-26T06:31:15;93265.38;;;13.00;67.51
1472;BME280;963;42.644;23.336;2023-04-26T06:33:41;93251.06;;;13.01;64.55
1472;BME280;963;42.644;23.336;2023-04-26T06:36:10;93250.31;;;13.01;63.71
1472;BME280;963;42.644;23.336;2023-04-26T06:38:37;93269.16;;;13.03;64.06
1472;BME280;963;42.644;23.336;2023-04-26T06:41:02;93270.97;;;13.09;62.08
1472;BME280;963;42.644;23.336;2023-04-26T06:43:28;93271.03;;;13.02;61.07
1472;BME280;963;42.644;23.336;2023-04-26T06:45:53;93282.69;;;13.05;61.03
1472;BME280;963;42.644;23.336;2023-04-26T06:48:18;93279.72;;;12.99;62.51
1472;BME280;963;42.644;23.336;2023-04-26T06:50:44;93273.56;;;13.13;62.27
1472;BME280;963;42.644;23.336;2023-04-26T06:53:10;93267.69;;;12.95;62.19
1472;BME280;963;42.644;23.336;2023-04-26T06:55:35;93289.06;;;13.11;62.70
1472;BME280;963;42.644;23.336;2023-04-26T06:58:01;93287.06;;;13.22;62.66
1472;BME280;963;42.644;23.336;2023-04-26T07:00:27;93284.06;;;13.20;63.42
1472;BME280;963;42.644;23.336;2023-04-26T07:02:54;93259.09;;;13.28;62.36
1472;BME280;963;42.644;23.336;2023-04-26T07:05:19;93266.53;;;13.37;62.33
1472;BME280;963;42.644;23.336;2023-04-26T07:07:45;93254.94;;;13.27;61.49
1472;BME280;963;42.644;23.336;2023-04-26T07:10:10;93284.69;;;13.31;60.40
1472;BME280;963;42.644;23.336;2023-04-26T07:12:36;93276.75;;;13.35;60.40
1472;BME280;963;42.644;23.336;2023-04-26T07:15:02;93280.59;;;13.27;60.17
1472;BME280;963;42.644;23.336;2023-04-26T07:17:27;93271.22;;;13.22;59.86
1472;BME280;963;42.644;23.336;2023-04-26T07:19:52;93274.56;;;13.26;60.01
1472;BME280;963;42.644;23.336;2023-04-26T07:22:18;93281.63;;;13.36;60.31
1472;BME280;963;42.644;23.336;2023-04-26T07:24:44;93286.91;;;13.40;58.30
1472;BME280;963;42.644;23.336;2023-04-26T07:27:09;93272.56;;;13.37;57.87
1472;BME280;963;42.644;23.336;2023-04-26T07:29:35;93271.78;;;13.40;57.64
1472;BME280;963;42.644;23.336;2023-04-26T07:32:00;93269.63;;;13.62;56.87
1472;BME280;963;42.644;23.336;2023-04-26T07:34:26;93282.78;;;13.66;56.48
1472;BME280;963;42.644;23.336;2023-04-26T07:36:51;93262.72;;;13.72;54.77
1472;BME280;963;42.644;23.336;2023-04-26T07:39:17;93265.97;;;13.83;54.02
1472;BME280;963;42.644;23.336;2023-04-26T07:41:42;93282.69;;;13.73;54.90
1472;BME280;963;42.644;23.336;2023-04-26T07:44:09;93274.25;;;13.85;54.07
1472;BME280;963;42.644;23.336;2023-04-26T07:46:35;93289.72;;;13.87;54.75
1472;BME280;963;42.644;23.336;2023-04-26T07:49:00;93281.03;;;13.86;53.83
1472;BME280;963;42.644;23.336;2023-04-26T07:51:26;93268.97;;;13.85;53.26
1472;BME280;963;42.644;23.336;2023-04-26T07:53:51;93281.94;;;13.76;53.38
1472;BME280;963;42.644;23.336;2023-04-26T07:56:17;93297.09;;;13.68;54.11
1472;BME280;963;42.644;23.336;2023-04-26T07:58:42;93305.34;;;13.74;53.46
1472;BME280;963;42.644;23.336;2023-04-26T08:01:08;93280.59;;;13.61;54.08
1472;BME280;963;42.644;23.336;2023-04-26T08:03:36;93290.63;;;13.76;54.52
1472;BME280;963;42.644;23.336;2023-04-26T08:06:01;93280.34;;;13.82;53.71
1472;BME280;963;42.644;23.336;2023-04-26T08:08:27;93283.50;;;13.70;54.32
1472;BME280;963;42.644;23.336;2023-04-26T08:10:53;93290.13;;;13.85;54.03
1472;BME280;963;42.644;23.336;2023-04-26T08:13:20;93291.22;;;13.88;53.16
1472;BME280;963;42.644;23.336;2023-04-26T08:15:46;93283.50;;;13.70;53.77
1472;BME280;963;42.644;23.336;2023-04-26T08:18:12;93294.09;;;13.97;53.90
1472;BME280;963;42.644;23.336;2023-04-26T08:20:38;93305.00;;;14.02;52.96
1472;BME280;963;42.644;23.336;2023-04-26T08:23:03;93302.03;;;13.97;53.59
1472;BME280;963;42.644;23.336;2023-04-26T08:25:30;93307.28;;;14.00;53.67
1472;BME280;963;42.644;23.336;2023-04-26T08:27:58;93287.97;;;13.76;53.50
1472;BME280;963;42.644;23.336;2023-04-26T08:30:23;93289.31;;;13.88;53.85
1472;BME280;963;42.644;23.336;2023-04-26T08:32:49;93305.69;;;14.06;53.88
1472;BME280;963;42.644;23.336;2023-04-26T08:35:14;93300.00;;;13.81;54.41
1472;BME280;963;42.644;23.336;2023-04-26T08:37:39;93292.25;;;13.94;52.90
1472;BME280;963;42.644;23.336;2023-04-26T08:40:06;93289.81;;;14.06;53.08
1472;BME280;963;42.644;23.336;2023-04-26T08:42:41;93316.94;;;13.84;53.57
1472;BME280;963;42.644;23.336;2023-04-26T08:45:09;93289.13;;;14.02;53.90
1472;BME280;963;42.644;23.336;2023-04-26T08:47:43;93303.34;;;14.12;53.15
1472;BME280;963;42.644;23.336;2023-04-26T08:50:13;93301.09;;;14.11;53.32
1472;BME280;963;42.644;23.336;2023-04-26T08:52:40;93298.72;;;14.20;53.18
1472;BME280;963;42.644;23.336;2023-04-26T08:55:07;93297.47;;;14.28;52.26
1472;BME280;963;42.644;23.336;2023-04-26T08:57:34;93297.91;;;14.23;52.26
1472;BME280;963;42.644;23.336;2023-04-26T09:00:04;93285.03;;;14.25;52.11
1472;BME280;963;42.644;23.336;2023-04-26T09:02:30;93306.22;;;14.25;51.94
1472;BME280;963;42.644;23.336;2023-04-26T09:04:56;93305.28;;;14.35;52.01
1472;BME280;963;42.644;23.336;2023-04-26T09:07:32;93311.59;;;14.18;52.36
1472;BME280;963;42.644;23.336;2023-04-26T09:09:59;93308.41;;;14.30;51.31
1472;BME280;963;42.644;23.336;2023-04-26T09:12:25;93318.88;;;14.37;52.09
1472;BME280;963;42.644;23.336;2023-04-26T09:14:50;93326.34;;;14.42;51.28
1472;BME280;963;42.644;23.336;2023-04-26T09:20:01;93317.63;;;14.45;51.67
1472;BME280;963;42.644;23.336;2023-04-26T09:22:34;93312.63;;;14.54;51.05
1472;BME280;963;42.644;23.336;2023-04-26T09:25:02;93317.22;;;14.50;51.53
1472;BME280;963;42.644;23.336;2023-04-26T09:27:46;93307.47;;;14.44;52.07
1472;BME280;963;42.644;23.336;2023-04-26T09:30:15;93321.66;;;14.57;52.18
1472;BME280;963;42.644;23.336;2023-04-26T09:32:56;93304.28;;;14.56;51.57
1472;BME280;963;42.644;23.336;2023-04-26T09:40:30;93320.44;;;14.85;50.05
1472;BME280;963;42.644;23.336;2023-04-26T09:43:10;93313.59;;;14.87;49.34
1472;BME280;963;42.644;23.336;2023-04-26T09:45:54;93305.59;;;14.67;50.57
1472;BME280;963;42.644;23.336;2023-04-26T09:48:25;93285.28;;;14.61;49.90
1472;BME280;963;42.644;23.336;2023-04-26T09:50:56;93309.97;;;14.78;50.24
1472;BME280;963;42.644;23.336;2023-04-26T09:53:40;93297.53;;;14.98;49.46
1472;BME280;963;42.644;23.336;2023-04-26T09:56:11;93296.66;;;15.05;49.32
1472;BME280;963;42.644;23.336;2023-04-26T10:01:09;93293.00;;;15.18;49.62
1472;BME280;963;42.644;23.336;2023-04-26T10:03:36;93299.34;;;15.24;49.73
1472;BME280;963;42.644;23.336;2023-04-26T10:06:02;93297.25;;;15.36;48.40
1472;BME280;963;42.644;23.336;2023-04-26T10:08:30;93294.53;;;15.39;47.54
1472;BME280;963;42.644;23.336;2023-04-26T10:10:55;93289.16;;;15.43;48.43
1472;BME280;963;42.644;23.336;2023-04-26T10:13:21;93306.81;;;15.49;47.92
1472;BME280;963;42.644;23.336;2023-04-26T10:15:47;93295.69;;;15.58;47.44
1472;BME280;963;42.644;23.336;2023-04-26T10:18:13;93292.44;;;15.70;47.68
1472;BME280;963;42.644;23.336;2023-04-26T10:20:40;93295.69;;;15.58;48.40
1472;BME280;963;42.644;23.336;2023-04-26T10:23:15;93287.75;;;15.58;47.14
1472;BME280;963;42.644;23.336;2023-04-26T10:25:45;93282.78;;;15.60;46.62
1472;BME280;963;42.644;23.336;2023-04-26T10:28:10;93284.88;;;15.49;46.75
1472;BME280;963;42.644;23.336;2023-04-26T10:33:20;93292.69;;;15.56;46.07
1472;BME280;963;42.644;23.336;2023-04-26T10:36:12;93280.88;;;15.60;45.51
1472;BME280;963;42.644;23.336;2023-04-26T10:38:40;93270.31;;;15.57;46.44
1472;BME280;963;42.644;23.336;2023-04-26T10:43:56;93281.19;;;15.66;45.46
1472;BME280;963;42.644;23.336;2023-04-26T10:46:38;93284.31;;;15.61;45.71
1472;BME280;963;42.644;23.336;2023-04-26T10:49:14;93264.34;;;15.53;45.05
1472;BME280;963;42.644;23.336;2023-04-26T10:51:40;93271.69;;;15.45;45.08
1472;BME280;963;42.644;23.336;2023-04-26T10:54:06;93269.53;;;15.60;45.16
1472;BME280;963;42.644;23.336;2023-04-26T11:01:32;93276.88;;;15.72;44.16
1472;BME280;963;42.644;23.336;2023-04-26T11:06:24;93271.00;;;15.81;44.19
1472;BME280;963;42.644;23.336;2023-04-26T11:08:50;93287.00;;;15.77;43.54
1472;BME280;963;42.644;23.336;2023-04-26T11:11:16;93277.16;;;15.78;44.21
1472;BME280;963;42.644;23.336;2023-04-26T11:13:44;93270.94;;;15.84;43.13
1472;BME280;963;42.644;23.336;2023-04-26T11:16:12;93282.06;;;15.95;43.15
1472;BME280;963;42.644;23.336;2023-04-26T11:18:39;93262.16;;;15.87;42.92
1472;BME280;963;42.644;23.336;2023-04-26T11:21:06;93272.81;;;16.04;43.06
1472;BME280;963;42.644;23.336;2023-04-26T11:23:32;93258.41;;;16.05;43.00
1472;BME280;963;42.644;23.336;2023-04-26T11:26:08;93281.63;;;16.17;42.82
1472;BME280;963;42.644;23.336;2023-04-26T11:28:37;93269.13;;;15.98;43.10
1472;BME280;963;42.644;23.336;2023-04-26T11:31:04;93263.53;;;16.12;41.79
1472;BME280;963;42.644;23.336;2023-04-26T11:33:31;93271.69;;;16.21;41.72
1472;BME280;963;42.644;23.336;2023-04-26T11:35:58;93267.03;;;16.25;41.75
1472;BME280;963;42.644;23.336;2023-04-26T11:38:25;93274.16;;;16.28;42.02
1472;BME280;963;42.644;23.336;2023-04-26T11:41:02;93287.53;;;16.41;42.64
1472;BME280;963;42.644;23.336;2023-04-26T11:45:58;93276.41;;;16.30;41.39
1472;BME280;963;42.644;23.336;2023-04-26T11:48:27;93275.31;;;16.27;41.07
1472;BME280;963;42.644;23.336;2023-04-26T11:50:53;93279.72;;;16.34;40.44
1472;BME280;963;42.644;23.336;2023-04-26T11:53:18;93285.78;;;16.34;41.20
1472;BME280;963;42.644;23.336;2023-04-26T11:55:44;93288.78;;;16.36;41.42
1472;BME280;963;42.644;23.336;2023-04-26T11:58:12;93277.97;;;16.27;42.20
1472;BME280;963;42.644;23.336;2023-04-26T12:00:57;93276.56;;;16.22;41.87
1472;BME280;963;42.644;23.336;2023-04-26T12:03:28;93267.84;;;16.06;41.74
1472;BME280;963;42.644;23.336;2023-04-26T12:05:53;93281.03;;;16.25;41.10
1472;BME280;963;42.644;23.336;2023-04-26T12:08:23;93279.13;;;16.26;41.10
1472;BME280;963;42.644;23.336;2023-04-26T12:10:48;93270.53;;;16.38;41.00
1472;BME280;963;42.644;23.336;2023-04-26T12:13:14;93267.47;;;16.40;41.37
1472;BME280;963;42.644;23.336;2023-04-26T12:15:40;93256.59;;;16.50;41.80
1472;BME280;963;42.644;23.336;2023-04-26T12:18:07;93272.34;;;16.57;41.08
1472;BME280;963;42.644;23.336;2023-04-26T12:20:36;93261.00;;;16.57;41.22
1472;BME280;963;42.644;23.336;2023-04-26T12:23:06;93269.31;;;16.43;41.65
1472;BME280;963;42.644;23.336;2023-04-26T12:25:33;93262.50;;;16.42;40.98
1472;BME280;963;42.644;23.336;2023-04-26T12:27:59;93255.59;;;16.28;41.14
1472;BME280;963;42.644;23.336;2023-04-26T12:30:27;93269.09;;;16.34;41.20
1472;BME280;963;42.644;23.336;2023-04-26T12:32:53;93254.75;;;16.31;41.26
1472;BME280;963;42.644;23.336;2023-04-26T12:35:18;93247.97;;;16.30;41.59
1472;BME280;963;42.644;23.336;2023-04-26T12:37:44;93253.53;;;16.36;40.88
1472;BME280;963;42.644;23.336;2023-04-26T12:40:10;93259.44;;;16.43;40.56
1472;BME280;963;42.644;23.336;2023-04-26T12:42:36;93238.53;;;16.45;40.86
1472;BME280;963;42.644;23.336;2023-04-26T12:45:02;93258.06;;;16.35;40.46
1472;BME280;963;42.644;23.336;2023-04-26T12:47:29;93247.47;;;16.35;40.04
1472;BME280;963;42.644;23.336;2023-04-26T12:49:55;93249.78;;;16.33;40.20
1472;BME280;963;42.644;23.336;2023-04-26T12:52:20;93249.31;;;16.38;41.45
1472;BME280;963;42.644;23.336;2023-04-26T12:54:46;93265.72;;;16.33;42.18
1472;BME280;963;42.644;23.336;2023-04-26T12:57:13;93263.97;;;16.26;41.63
1472;BME280;963;42.644;23.336;2023-04-26T12:59:38;93251.94;;;16.22;41.84
1472;BME280;963;42.644;23.336;2023-04-26T13:02:04;93277.97;;;16.27;41.97
1472;BME280;963;42.644;23.336;2023-04-26T13:04:29;93243.97;;;16.06;42.35
1472;BME280;963;42.644;23.336;2023-04-26T13:06:55;93269.19;;;16.14;42.08
1472;BME280;963;42.644;23.336;2023-04-26T13:09:20;93259.22;;;16.02;41.29
1472;BME280;963;42.644;23.336;2023-04-26T13:11:46;93260.19;;;15.91;41.45
1472;BME280;963;42.644;23.336;2023-04-26T13:14:12;93271.28;;;15.86;42.80
1472;BME280;963;42.644;23.336;2023-04-26T13:16:37;93262.84;;;15.91;42.97
1472;BME280;963;42.644;23.336;2023-04-26T13:19:10;93279.09;;;15.93;42.94
1472;BME280;963;42.644;23.336;2023-04-26T13:21:36;93272.31;;;15.73;43.04
1472;BME280;963;42.644;23.336;2023-04-26T13:24:02;93310.00;;;15.64;43.37
1472;BME280;963;42.644;23.336;2023-04-26T13:26:27;93300.22;;;15.57;44.07
1472;BME280;963;42.644;23.336;2023-04-26T13:28:53;93291.19;;;15.55;43.46
1472;BME280;963;42.644;23.336;2023-04-26T13:31:18;93294.81;;;15.45;43.32
1472;BME280;963;42.644;23.336;2023-04-26T13:33:46;93300.72;;;15.32;42.69
1472;BME280;963;42.644;23.336;2023-04-26T13:36:13;93310.63;;;15.28;43.50
1472;BME280;963;42.644;23.336;2023-04-26T13:38:40;93302.69;;;15.28;43.75
1472;BME280;963;42.644;23.336;2023-04-26T13:41:05;93301.50;;;15.10;43.90
1472;BME280;963;42.644;23.336;2023-04-26T13:43:31;93301.22;;;15.04;44.28
1472;BME280;963;42.644;23.336;2023-04-26T13:45:57;93307.53;;;15.10;44.22